Time;durP1;ratioP1;P1;durP2;ratioP2;P2;SDS_P1;SDS_P2;PMS_P1;PMS_P2;Temp;Humidity;BMP_temperature;BMP_pressure;BME280_temperature;BME280_humidity;BME280_pressure;Samples;Min_cycle;Max_cycle;Signal;HPM_P1;HPM_P2
2023/04/13 00:00:10;;;;;;;12.18;4.97;;;4.50;99.90;;;;;;5050947;28;20360;-65
2023/04/13 00:02:37;;;;;;;11.85;5.03;;;4.60;99.90;;;;;;5050143;28;20075;-67
2023/04/13 00:05:06;;;;;;;9.00;4.82;;;4.60;99.90;;;;;;5071153;28;20068;-66
2023/04/13 00:07:38;;;;;;;12.32;4.75;;;4.60;99.90;;;;;;5066991;28;20048;-71
2023/04/13 00:10:08;;;;;;;9.18;4.57;;;4.60;99.90;;;;;;5066997;28;20048;-66
2023/04/13 00:12:35;;;;;;;10.73;5.28;;;4.70;99.90;;;;;;5076453;28;20415;-68
2023/04/13 00:15:04;;;;;;;12.65;4.97;;;4.70;99.90;;;;;;5087486;28;20145;-67
2023/04/13 00:17:32;;;;;;;11.35;4.93;;;4.80;99.90;;;;;;5060503;28;20048;-67
2023/04/13 00:19:58;;;;;;;9.48;5.38;;;4.90;99.90;;;;;;5050345;28;20067;-69
2023/04/13 00:22:26;;;;;;;8.63;4.80;;;4.90;99.90;;;;;;5066936;28;20048;-66
2023/04/13 00:24:56;;;;;;;8.57;5.38;;;5.00;99.90;;;;;;5050154;28;20131;-66
2023/04/13 00:27:25;;;;;;;10.85;5.50;;;5.00;99.90;;;;;;5049916;28;20044;-66
2023/04/13 00:29:51;;;;;;;12.00;6.15;;;5.10;99.90;;;;;;5049960;28;20071;-67
2023/04/13 00:32:16;;;;;;;10.65;5.75;;;5.10;99.90;;;;;;5049532;28;20045;-66
2023/04/13 00:34:44;;;;;;;12.27;6.22;;;5.20;99.90;;;;;;5086157;28;20406;-66
2023/04/13 00:37:12;;;;;;;13.73;5.80;;;5.20;99.90;;;;;;5066319;28;20116;-66
2023/04/13 00:39:37;;;;;;;11.27;5.70;;;5.20;99.90;;;;;;5066408;28;20395;-66
2023/04/13 00:42:04;;;;;;;10.10;5.60;;;5.20;99.90;;;;;;5065479;28;20040;-67
2023/04/13 00:44:31;;;;;;;10.90;5.05;;;5.20;99.90;;;;;;5066330;28;20511;-68
2023/04/13 00:46:57;;;;;;;10.05;5.63;;;5.20;99.90;;;;;;5049384;28;20041;-65
2023/04/13 00:49:22;;;;;;;11.20;5.43;;;5.30;99.90;;;;;;5074476;28;20052;-67
2023/04/13 00:51:49;;;;;;;11.93;5.40;;;5.30;99.90;;;;;;5066077;28;20036;-67
2023/04/13 00:54:16;;;;;;;11.85;5.70;;;5.30;99.90;;;;;;5066603;28;20488;-67
2023/04/13 00:56:43;;;;;;;13.23;6.70;;;5.30;99.90;;;;;;5066305;28;20059;-68
2023/04/13 00:59:13;;;;;;;10.77;5.95;;;5.40;99.90;;;;;;5049567;28;20044;-67
2023/04/13 01:01:45;;;;;;;10.63;5.63;;;5.40;99.90;;;;;;5065669;28;20060;-66
2023/04/13 01:04:12;;;;;;;10.85;5.28;;;5.40;99.90;;;;;;5066337;28;20547;-69
2023/04/13 01:06:49;;;;;;;15.10;6.40;;;5.50;99.90;;;;;;5049784;28;20066;-66
2023/04/13 01:09:19;;;;;;;11.57;5.60;;;5.60;99.90;;;;;;5065983;28;20048;-67
2023/04/13 01:11:56;;;;;;;9.80;4.60;;;5.60;99.90;;;;;;5049461;28;20129;-65
2023/04/13 01:14:36;;;;;;;8.80;5.32;;;5.70;99.90;;;;;;5066505;28;20044;-65
2023/04/13 01:17:09;;;;;;;10.88;5.28;;;5.70;99.90;;;;;;5085838;28;20036;-64
2023/04/13 01:20:00;;;;;;;11.50;5.65;;;5.70;99.90;;;;;;5060535;28;20040;-66
2023/04/13 01:22:31;;;;;;;13.00;6.25;;;5.70;99.90;;;;;;5065436;28;20036;-63
2023/04/13 01:25:32;;;;;;;14.05;6.25;;;5.70;99.90;;;;;;5066142;28;20110;-65
2023/04/13 01:28:06;;;;;;;13.48;6.30;;;5.70;99.90;;;;;;4971726;28;20298;-64
2023/04/13 01:30:34;;;;;;;11.88;6.20;;;5.60;99.90;;;;;;5043065;28;20060;-65
2023/04/13 01:33:01;;;;;;;9.05;5.40;;;5.60;99.90;;;;;;5065638;28;20113;-65
2023/04/13 01:35:28;;;;;;;10.88;4.70;;;5.60;99.90;;;;;;5057298;28;20048;-65
2023/04/13 01:37:54;;;;;;;13.85;4.65;;;5.60;99.90;;;;;;5048989;28;20677;-63
2023/04/13 01:40:25;;;;;;;9.25;4.35;;;5.60;99.90;;;;;;5048953;28;20109;-64
2023/04/13 01:42:51;;;;;;;11.40;3.70;;;5.60;99.90;;;;;;5069049;28;20040;-64
2023/04/13 01:45:21;;;;;;;7.72;4.20;;;5.50;99.90;;;;;;5085671;28;20036;-64
2023/04/13 01:48:01;;;;;;;10.43;4.10;;;5.50;99.90;;;;;;5066869;28;20052;-64
2023/04/13 01:50:28;;;;;;;12.32;4.25;;;5.50;99.90;;;;;;5054196;28;20048;-63
2023/04/13 01:52:59;;;;;;;10.23;4.43;;;5.50;99.90;;;;;;5080215;28;20448;-64
2023/04/13 01:55:25;;;;;;;8.43;3.85;;;5.50;99.90;;;;;;5068421;28;20119;-64
2023/04/13 01:57:54;;;;;;;8.10;3.88;;;5.40;99.90;;;;;;5085108;28;20166;-64
2023/04/13 02:00:20;;;;;;;12.15;3.72;;;5.50;99.90;;;;;;5072232;28;20048;-64
2023/04/13 02:02:47;;;;;;;10.20;4.07;;;5.40;99.90;;;;;;5064589;28;20049;-65
2023/04/13 02:05:13;;;;;;;11.02;4.05;;;5.50;99.90;;;;;;5069914;28;20090;-65
2023/04/13 02:07:41;;;;;;;9.90;3.67;;;5.40;99.90;;;;;;5064566;28;20040;-63
2023/04/13 02:10:07;;;;;;;9.45;3.80;;;5.40;99.90;;;;;;5048252;28;20041;-62
2023/04/13 02:12:33;;;;;;;9.98;3.40;;;5.40;99.90;;;;;;5064481;28;20044;-65
2023/04/13 02:15:00;;;;;;;8.93;2.92;;;5.40;99.90;;;;;;5048114;28;20041;-62
2023/04/13 02:17:29;;;;;;;9.18;3.40;;;5.40;99.90;;;;;;5053139;28;20630;-64
2023/04/13 02:19:56;;;;;;;9.63;3.70;;;5.40;99.90;;;;;;5076972;28;20123;-64
2023/04/13 02:22:22;;;;;;;8.90;3.13;;;5.40;99.90;;;;;;5084545;28;20051;-62
2023/04/13 02:24:49;;;;;;;9.13;2.97;;;5.40;99.90;;;;;;5067835;28;20051;-63
2023/04/13 02:27:16;;;;;;;11.70;3.15;;;5.40;99.90;;;;;;5066093;28;20059;-63
2023/04/13 02:29:42;;;;;;;7.55;3.35;;;5.40;99.90;;;;;;5048236;28;20041;-62
2023/04/13 02:32:08;;;;;;;8.93;3.22;;;5.40;99.90;;;;;;5064253;28;20372;-63
2023/04/13 02:34:34;;;;;;;10.07;3.42;;;5.50;99.90;;;;;;5064304;28;20102;-64
2023/04/13 02:37:01;;;;;;;8.38;3.50;;;5.40;99.90;;;;;;5064214;28;20407;-62
2023/04/13 02:39:27;;;;;;;8.80;3.05;;;5.40;99.90;;;;;;5064468;28;20050;-61
2023/04/13 02:41:53;;;;;;;7.78;3.35;;;5.50;99.90;;;;;;5048060;28;20145;-63
2023/04/13 02:44:19;;;;;;;10.32;3.17;;;5.40;99.90;;;;;;5080262;28;20040;-63
2023/04/13 02:46:45;;;;;;;9.07;3.50;;;5.40;99.90;;;;;;5053769;28;20460;-63
2023/04/13 02:49:11;;;;;;;9.25;3.38;;;5.50;99.90;;;;;;5056582;28;20069;-63
2023/04/13 02:51:36;;;;;;;8.82;3.33;;;5.50;99.90;;;;;;5063675;28;20047;-64
2023/04/13 02:54:03;;;;;;;9.13;3.05;;;5.50;99.90;;;;;;5065520;28;20048;-62
2023/04/13 02:56:29;;;;;;;7.38;3.53;;;5.50;99.90;;;;;;5047254;28;20086;-62
2023/04/13 02:58:56;;;;;;;7.75;3.30;;;5.50;99.90;;;;;;5064080;28;20152;-61
2023/04/13 03:01:23;;;;;;;8.85;3.00;;;5.50;99.90;;;;;;5076628;28;20063;-63
2023/04/13 03:03:50;;;;;;;14.07;3.00;;;5.50;99.90;;;;;;5084349;28;20040;-63
2023/04/13 03:06:16;;;;;;;8.60;2.95;;;5.50;99.90;;;;;;5079368;28;20044;-62
2023/04/13 03:08:42;;;;;;;9.60;2.80;;;5.50;99.90;;;;;;5065453;28;20652;-62
2023/04/13 03:11:10;;;;;;;8.32;3.50;;;5.50;99.90;;;;;;5074791;28;20075;-62
2023/04/13 03:13:36;;;;;;;7.15;3.00;;;5.50;99.90;;;;;;5067564;28;20039;-62
2023/04/13 03:16:03;;;;;;;7.70;3.25;;;5.50;99.90;;;;;;5069613;28;20066;-63
2023/04/13 03:18:29;;;;;;;7.47;3.22;;;5.50;99.90;;;;;;5055595;28;20157;-62
2023/04/13 03:20:55;;;;;;;10.05;3.33;;;5.50;99.90;;;;;;5068902;28;20060;-63
2023/04/13 03:23:21;;;;;;;7.68;3.05;;;5.50;99.90;;;;;;5065033;28;20044;-64
2023/04/13 03:25:46;;;;;;;8.57;3.10;;;5.50;99.90;;;;;;5063766;28;20040;-63
2023/04/13 03:28:12;;;;;;;7.15;2.70;;;5.50;99.90;;;;;;5063932;28;20424;-64
2023/04/13 03:30:38;;;;;;;8.57;3.08;;;5.50;99.90;;;;;;5063596;28;20051;-62
2023/04/13 03:33:04;;;;;;;6.30;2.58;;;5.50;99.90;;;;;;5063677;28;20044;-62
2023/04/13 03:35:30;;;;;;;6.88;2.40;;;5.60;99.90;;;;;;5050346;28;20032;-64
2023/04/13 03:37:55;;;;;;;10.80;2.80;;;5.60;99.90;;;;;;5083902;28;20494;-63
2023/04/13 03:40:21;;;;;;;8.43;3.13;;;5.60;99.90;;;;;;5083784;28;20036;-62
2023/04/13 03:42:46;;;;;;;8.70;3.13;;;5.60;99.90;;;;;;5081590;28;20061;-63
2023/04/13 03:45:12;;;;;;;6.72;2.70;;;5.60;99.90;;;;;;5063646;28;20531;-64
2023/04/13 03:47:38;;;;;;;6.78;2.58;;;5.70;99.90;;;;;;5046723;28;20187;-64
2023/04/13 03:50:05;;;;;;;8.35;2.72;;;5.60;99.90;;;;;;5072005;28;20041;-64
2023/04/13 03:52:30;;;;;;;6.47;2.55;;;5.70;99.90;;;;;;5063392;28;20420;-64
2023/04/13 03:54:56;;;;;;;8.65;3.20;;;5.70;99.90;;;;;;5063260;28;20150;-64
2023/04/13 03:57:22;;;;;;;8.82;3.10;;;5.70;99.90;;;;;;5063524;28;20036;-64
2023/04/13 03:59:48;;;;;;;8.70;3.05;;;5.70;99.90;;;;;;5063755;28;20051;-64
2023/04/13 04:02:14;;;;;;;7.57;2.85;;;5.70;99.90;;;;;;5063020;28;20064;-62
2023/04/13 04:04:39;;;;;;;7.25;2.80;;;5.70;99.90;;;;;;5065593;28;20363;-64
2023/04/13 04:07:05;;;;;;;7.50;2.50;;;5.70;99.90;;;;;;5079529;28;20042;-65
2023/04/13 04:09:31;;;;;;;7.40;2.90;;;5.70;99.90;;;;;;5066665;28;20835;-65
2023/04/13 04:11:56;;;;;;;7.13;2.75;;;5.70;99.90;;;;;;5083853;28;20040;-64
2023/04/13 04:14:22;;;;;;;7.05;2.92;;;5.80;99.90;;;;;;5083363;28;20040;-64
2023/04/13 04:16:48;;;;;;;7.63;3.15;;;5.80;99.90;;;;;;5057517;28;20074;-64
2023/04/13 04:19:14;;;;;;;6.80;3.28;;;5.80;99.90;;;;;;5082162;28;20040;-64
2023/04/13 04:21:45;;;;;;;7.72;3.40;;;5.80;99.90;;;;;;5083560;28;20367;-64
2023/04/13 04:24:19;;;;;;;6.90;3.33;;;5.80;99.90;;;;;;5050441;28;20107;-65
2023/04/13 04:26:49;;;;;;;7.28;2.97;;;5.80;99.90;;;;;;5067093;28;20496;-65
2023/04/13 04:29:21;;;;;;;6.53;2.83;;;5.80;99.90;;;;;;5067718;28;20113;-63
2023/04/13 04:31:51;;;;;;;8.52;3.40;;;5.80;99.90;;;;;;5087027;28;20437;-65
2023/04/13 04:34:18;;;;;;;7.75;3.30;;;5.80;99.90;;;;;;5068757;28;20081;-65
2023/04/13 04:36:51;;;;;;;7.35;3.55;;;5.70;99.90;;;;;;5080147;28;20036;-63
2023/04/13 04:39:21;;;;;;;6.80;3.38;;;5.70;99.90;;;;;;5069863;28;20051;-64
2023/04/13 04:41:53;;;;;;;9.95;3.63;;;5.60;99.90;;;;;;5056480;28;20048;-64
2023/04/13 04:44:29;;;;;;;6.60;3.47;;;5.60;99.90;;;;;;5079254;28;20516;-63
2023/04/13 04:46:55;;;;;;;6.63;3.20;;;5.50;99.90;;;;;;5066210;28;20127;-64
2023/04/13 04:49:21;;;;;;;7.88;3.58;;;5.40;99.90;;;;;;5075820;28;20052;-65
2023/04/13 04:51:48;;;;;;;7.40;3.40;;;5.40;99.90;;;;;;5071795;28;20116;-65
2023/04/13 04:54:18;;;;;;;8.88;4.00;;;5.40;99.90;;;;;;5066556;28;20036;-64
2023/04/13 04:56:44;;;;;;;8.63;3.47;;;5.30;99.90;;;;;;5067529;28;20044;-64
2023/04/13 04:59:10;;;;;;;9.20;3.15;;;5.30;99.90;;;;;;5049971;28;20084;-63
2023/04/13 05:01:37;;;;;;;9.48;3.83;;;5.30;99.90;;;;;;5065834;28;20060;-63
2023/04/13 05:04:03;;;;;;;8.27;3.88;;;5.30;99.90;;;;;;5049581;28;20048;-63
2023/04/13 05:06:32;;;;;;;9.38;4.35;;;5.30;99.90;;;;;;5065792;28;20049;-62
2023/04/13 05:09:00;;;;;;;9.88;4.90;;;5.30;99.90;;;;;;5059169;28;20039;-64
2023/04/13 05:11:27;;;;;;;11.02;4.80;;;5.30;99.90;;;;;;5066026;28;20037;-65
2023/04/13 05:13:54;;;;;;;9.38;4.75;;;5.40;99.90;;;;;;5066269;28;20134;-64
2023/04/13 05:16:21;;;;;;;13.73;5.63;;;5.40;99.90;;;;;;5049969;28;20047;-64
2023/04/13 05:18:47;;;;;;;13.75;5.50;;;5.40;99.90;;;;;;5068899;28;20032;-64
2023/04/13 05:21:14;;;;;;;12.75;5.40;;;5.50;99.90;;;;;;5063652;28;20044;-64
2023/04/13 05:23:41;;;;;;;12.02;5.90;;;5.50;99.90;;;;;;5068497;28;20048;-63
2023/04/13 05:26:10;;;;;;;13.32;5.03;;;5.50;99.90;;;;;;5065937;28;20075;-64
2023/04/13 05:28:36;;;;;;;15.27;5.97;;;5.60;99.90;;;;;;5048140;28;20043;-64
2023/04/13 05:31:06;;;;;;;14.00;6.28;;;5.60;99.90;;;;;;5083205;28;20118;-64
2023/04/13 05:33:34;;;;;;;11.68;5.88;;;5.90;99.90;;;;;;5085123;28;20070;-65
2023/04/13 05:36:02;;;;;;;11.70;6.20;;;6.00;99.90;;;;;;5061084;28;20044;-65
2023/04/13 05:38:28;;;;;;;11.50;5.70;;;6.20;99.90;;;;;;5049035;28;20411;-64
2023/04/13 05:40:53;;;;;;;11.25;5.50;;;6.30;99.90;;;;;;5065426;28;20044;-65
2023/04/13 05:43:20;;;;;;;10.50;5.78;;;6.60;99.90;;;;;;5065271;28;20060;-64
2023/04/13 05:45:46;;;;;;;8.75;4.68;;;6.90;99.90;;;;;;5070936;28;20126;-65
2023/04/13 05:48:12;;;;;;;9.77;5.03;;;7.40;99.90;;;;;;5084962;28;20118;-66
2023/04/13 05:50:38;;;;;;;10.25;4.50;;;7.80;99.90;;;;;;5058326;28;20037;-64
2023/04/13 05:53:07;;;;;;;9.52;5.10;;;7.80;99.90;;;;;;5065007;28;20052;-64
2023/04/13 05:55:33;;;;;;;9.25;4.72;;;7.50;99.90;;;;;;5065456;28;20041;-65
2023/04/13 05:58:04;;;;;;;11.68;4.70;;;7.30;99.90;;;;;;5064974;28;20071;-64
2023/04/13 06:00:31;;;;;;;9.20;4.53;;;7.20;99.90;;;;;;5064650;28;20051;-64
2023/04/13 06:03:00;;;;;;;13.10;4.57;;;7.10;99.90;;;;;;5064543;28;20185;-63
2023/04/13 06:05:25;;;;;;;13.30;4.50;;;7.10;99.90;;;;;;5063577;28;20048;-65
2023/04/13 06:07:52;;;;;;;9.27;4.50;;;7.10;99.90;;;;;;5067844;28;20051;-63
2023/04/13 06:10:18;;;;;;;14.60;4.70;;;7.10;99.90;;;;;;5064954;28;20332;-65
2023/04/13 06:12:47;;;;;;;9.27;4.30;;;7.90;99.90;;;;;;5064526;28;20036;-65
2023/04/13 06:15:13;;;;;;;10.95;4.35;;;8.50;99.90;;;;;;5064137;28;20224;-63
2023/04/13 06:17:40;;;;;;;8.90;4.13;;;8.80;99.90;;;;;;5084307;28;20136;-64
2023/04/13 06:20:07;;;;;;;9.27;3.90;;;9.20;99.90;;;;;;5066417;28;20445;-66
2023/04/13 06:22:33;;;;;;;9.07;3.40;;;9.00;99.90;;;;;;5084152;28;20125;-65
2023/04/13 06:25:00;;;;;;;9.75;3.97;;;8.80;99.90;;;;;;5068183;28;20489;-68
2023/04/13 06:27:25;;;;;;;10.10;3.83;;;8.70;99.90;;;;;;5074387;28;20059;-63
2023/04/13 06:29:51;;;;;;;9.65;3.80;;;8.40;99.90;;;;;;5082714;28;20239;-64
2023/04/13 06:32:17;;;;;;;10.10;4.30;;;8.10;99.90;;;;;;5065086;28;20143;-66
2023/04/13 06:34:44;;;;;;;10.93;3.83;;;7.90;99.90;;;;;;5047744;28;20051;-64
2023/04/13 06:37:10;;;;;;;10.88;4.15;;;7.80;99.90;;;;;;5047324;28;20133;-63
2023/04/13 06:39:36;;;;;;;9.40;4.25;;;7.80;99.90;;;;;;5063776;28;20044;-63
2023/04/13 06:42:03;;;;;;;9.32;4.43;;;7.70;99.90;;;;;;5063936;28;20547;-62
2023/04/13 06:44:29;;;;;;;15.52;4.05;;;7.60;99.90;;;;;;5064155;28;20041;-65
2023/04/13 06:46:55;;;;;;;13.98;4.05;;;7.60;99.90;;;;;;5064127;28;20067;-66
2023/04/13 06:49:21;;;;;;;11.40;4.43;;;7.50;99.90;;;;;;5074552;28;20040;-65
2023/04/13 06:51:47;;;;;;;9.48;4.07;;;7.50;99.90;;;;;;5063946;28;20044;-65
2023/04/13 06:54:13;;;;;;;10.98;3.92;;;7.40;99.90;;;;;;5047987;28;20036;-62
2023/04/13 06:56:39;;;;;;;11.18;4.45;;;7.40;99.90;;;;;;5064409;28;20239;-63
2023/04/13 06:59:05;;;;;;;11.48;4.00;;;7.50;99.90;;;;;;5047625;28;20131;-64
2023/04/13 07:01:31;;;;;;;14.93;4.88;;;7.50;99.90;;;;;;5063979;28;20562;-63
2023/04/13 07:03:57;;;;;;;10.30;4.85;;;7.60;99.90;;;;;;5064083;28;20049;-64
2023/04/13 07:06:23;;;;;;;10.40;4.10;;;7.50;99.90;;;;;;5064348;28;20323;-64
2023/04/13 07:08:49;;;;;;;10.63;4.38;;;7.40;99.90;;;;;;5063762;28;20047;-63
2023/04/13 07:11:15;;;;;;;13.18;5.05;;;7.30;99.90;;;;;;5066972;28;20050;-63
2023/04/13 07:13:41;;;;;;;14.27;4.60;;;7.40;99.90;;;;;;5074578;28;20127;-65
2023/04/13 07:16:07;;;;;;;16.20;5.25;;;7.50;99.90;;;;;;5068371;28;20059;-63
2023/04/13 07:18:34;;;;;;;10.73;4.53;;;7.70;99.90;;;;;;5084036;28;20039;-63
2023/04/13 07:21:00;;;;;;;10.75;4.53;;;7.90;99.90;;;;;;5066728;28;20128;-63
2023/04/13 07:23:26;;;;;;;11.85;4.50;;;8.00;99.90;;;;;;5047976;28;20545;-64
2023/04/13 07:25:52;;;;;;;9.80;4.65;;;8.00;99.90;;;;;;5067042;28;20044;-63
2023/04/13 07:28:17;;;;;;;10.10;4.10;;;8.00;99.90;;;;;;5060843;28;20040;-62
2023/04/13 07:30:44;;;;;;;15.82;5.28;;;7.90;99.90;;;;;;5063735;28;20044;-64
2023/04/13 07:33:10;;;;;;;14.32;4.00;;;7.90;99.90;;;;;;5063634;28;20037;-62
2023/04/13 07:35:36;;;;;;;12.43;3.80;;;7.80;99.90;;;;;;5051440;28;20055;-62
2023/04/13 07:38:02;;;;;;;12.32;3.88;;;7.90;99.90;;;;;;5063308;28;20045;-63
2023/04/13 07:40:28;;;;;;;13.05;3.90;;;8.20;99.90;;;;;;5063693;28;20052;-66
2023/04/13 07:42:54;;;;;;;11.77;3.35;;;8.50;99.90;;;;;;5049386;28;20044;-63
2023/04/13 07:45:20;;;;;;;14.05;3.60;;;9.00;99.90;;;;;;5083721;28;20043;-64
2023/04/13 07:47:46;;;;;;;11.45;4.00;;;9.70;99.90;;;;;;5083461;28;20047;-64
2023/04/13 07:50:13;;;;;;;8.45;3.00;;;10.30;99.90;;;;;;5072838;28;20043;-64
2023/04/13 07:52:39;;;;;;;7.78;2.95;;;10.40;99.90;;;;;;5066321;28;20036;-66
2023/04/13 07:55:06;;;;;;;10.15;2.90;;;10.40;99.90;;;;;;5051007;28;20045;-63
2023/04/13 07:57:32;;;;;;;9.70;3.00;;;10.10;99.90;;;;;;5051039;28;20036;-68
2023/04/13 07:59:58;;;;;;;11.05;2.95;;;10.00;99.90;;;;;;5050990;28;20032;-65
2023/04/13 08:02:24;;;;;;;7.85;2.70;;;10.30;99.90;;;;;;5050316;28;20415;-63
2023/04/13 08:04:51;;;;;;;8.10;2.20;;;10.70;99.90;;;;;;5052550;28;20048;-69
2023/04/13 08:07:17;;;;;;;13.85;2.65;;;11.50;99.90;;;;;;5070179;28;20364;-65
2023/04/13 08:09:47;;;;;;;10.57;2.45;;;11.30;99.90;;;;;;5057133;28;20151;-62
2023/04/13 08:12:13;;;;;;;8.48;2.35;;;11.00;99.90;;;;;;5050747;28;20039;-69
2023/04/13 08:14:39;;;;;;;14.73;2.42;;;10.50;99.90;;;;;;5050903;28;20403;-65
2023/04/13 08:17:05;;;;;;;8.30;2.25;;;9.90;99.90;;;;;;5079398;28;20546;-65
2023/04/13 08:19:31;;;;;;;10.27;1.98;;;9.50;99.90;;;;;;5060467;28;20048;-69
2023/04/13 08:21:58;;;;;;;6.68;1.88;;;9.20;99.90;;;;;;5050801;28;20048;-69
2023/04/13 08:24:24;;;;;;;8.82;2.65;;;8.90;99.90;;;;;;5050571;28;20080;-64
2023/04/13 08:26:59;;;;;;;12.07;2.80;;;8.80;99.90;;;;;;5066746;28;20083;-66
2023/04/13 08:29:26;;;;;;;9.75;2.78;;;8.60;99.90;;;;;;5067021;28;20044;-68
2023/04/13 08:31:52;;;;;;;9.02;2.60;;;9.00;99.90;;;;;;5066708;28;20498;-64
2023/04/13 08:34:18;;;;;;;7.63;2.35;;;9.70;99.90;;;;;;5068476;28;21015;-66
2023/04/13 08:36:47;;;;;;;6.57;2.33;;;10.10;99.90;;;;;;5068016;28;20037;-68
2023/04/13 08:39:13;;;;;;;8.57;3.47;;;10.80;99.90;;;;;;5050522;28;20551;-65
2023/04/13 08:41:44;;;;;;;11.20;2.00;;;10.90;99.90;;;;;;5066836;28;20048;-70
2023/04/13 08:44:12;;;;;;;6.55;1.95;;;11.00;99.90;;;;;;5049802;28;20101;-66
2023/04/13 08:46:41;;;;;;;6.63;1.77;;;11.00;99.90;;;;;;5050281;28;20055;-65
2023/04/13 08:49:11;;;;;;;7.35;1.98;;;11.10;99.90;;;;;;5083450;28;20120;-67
2023/04/13 08:51:37;;;;;;;8.05;1.90;;;11.40;99.90;;;;;;5066554;28;20495;-68
2023/04/13 08:54:03;;;;;;;5.57;1.80;;;12.00;99.90;;;;;;5049800;28;20371;-66
2023/04/13 08:56:30;;;;;;;9.55;1.98;;;12.20;99.90;;;;;;5049689;28;20518;-65
2023/04/13 08:59:03;;;;;;;7.63;1.70;;;12.30;99.90;;;;;;5049647;28;20040;-65
2023/04/13 09:01:31;;;;;;;7.25;1.77;;;12.30;99.90;;;;;;5049470;28;20466;-65
2023/04/13 09:04:05;;;;;;;7.03;1.80;;;12.00;99.90;;;;;;5078887;28;20126;-67
2023/04/13 09:06:34;;;;;;;7.28;1.77;;;11.40;99.90;;;;;;5049154;28;20059;-65
2023/04/13 09:09:05;;;;;;;8.82;2.15;;;10.90;99.90;;;;;;5066060;28;20163;-64
2023/04/13 09:11:31;;;;;;;7.15;1.73;;;10.80;99.90;;;;;;5049391;28;20146;-64
2023/04/13 09:13:57;;;;;;;5.22;1.67;;;10.70;99.90;;;;;;5076196;28;20533;-64
2023/04/13 09:16:23;;;;;;;5.85;1.80;;;10.40;99.90;;;;;;5086208;28;20071;-65
2023/04/13 09:18:54;;;;;;;6.15;1.70;;;10.30;99.90;;;;;;5067816;28;20419;-65
2023/04/13 09:21:22;;;;;;;5.80;1.83;;;10.20;99.90;;;;;;5067511;28;20039;-67
2023/04/13 09:23:56;;;;;;;4.78;1.65;;;10.30;99.90;;;;;;5086181;28;20506;-63
2023/04/13 09:26:21;;;;;;;5.30;1.40;;;10.80;99.90;;;;;;5054049;28;20082;-65
2023/04/13 09:28:48;;;;;;;3.90;1.20;;;11.40;99.90;;;;;;5057437;28;20136;-66
2023/04/13 09:31:15;;;;;;;5.47;1.20;;;11.60;99.90;;;;;;5068860;28;20083;-66
2023/04/13 09:33:48;;;;;;;5.10;1.10;;;11.60;99.90;;;;;;5079343;28;20396;-64
2023/04/13 09:36:17;;;;;;;3.47;1.08;;;11.60;99.90;;;;;;5048499;28;20187;-67
2023/04/13 09:38:56;;;;;;;4.32;0.90;;;11.60;99.90;;;;;;5048703;28;20491;-65
2023/04/13 09:41:36;;;;;;;3.63;0.80;;;11.70;99.90;;;;;;5049036;28;20112;-66
2023/04/13 09:44:15;;;;;;;4.75;0.90;;;11.90;99.90;;;;;;5048299;28;20036;-67
2023/04/13 09:46:41;;;;;;;5.72;1.17;;;12.50;99.90;;;;;;5065538;28;20094;-65
2023/04/13 09:49:07;;;;;;;5.18;1.35;;;12.40;99.90;;;;;;5059479;28;20087;-66
2023/04/13 09:51:37;;;;;;;3.85;0.98;;;11.90;99.90;;;;;;5080754;28;20872;-65
2023/04/13 09:54:06;;;;;;;6.20;1.30;;;11.10;99.90;;;;;;5068511;28;20044;-65
2023/04/13 09:56:46;;;;;;;4.13;1.20;;;10.50;99.90;;;;;;5050066;28;20131;-63
2023/04/13 09:59:13;;;;;;;2.70;0.90;;;10.00;99.90;;;;;;5065269;28;20545;-65
2023/04/13 10:01:40;;;;;;;5.30;0.90;;;9.60;99.90;;;;;;5064998;28;20464;-62
2023/04/13 10:04:07;;;;;;;7.38;1.20;;;9.30;99.90;;;;;;5065506;28;20579;-60
2023/04/13 10:06:40;;;;;;;4.20;1.27;;;8.40;99.90;;;;;;5081893;28;20460;-64
2023/04/13 10:09:06;;;;;;;4.28;0.93;;;7.50;99.90;;;;;;5086457;28;20098;-63
2023/04/13 10:11:45;;;;;;;3.47;0.90;;;6.90;99.90;;;;;;5068539;28;20032;-62
2023/04/13 10:14:34;;;;;;;3.63;1.00;;;6.60;99.90;;;;;;5049414;28;20293;-65
2023/04/13 10:17:34;;;;;;;8.15;1.33;;;6.60;99.90;;;;;;5059304;28;20511;-64
2023/04/13 10:20:08;;;;;;;3.33;0.88;;;6.70;99.90;;;;;;5076738;28;20542;-64
2023/04/13 10:22:35;;;;;;;4.47;1.20;;;6.90;99.90;;;;;;5064763;28;20083;-63
2023/04/13 10:25:01;;;;;;;8.27;1.10;;;7.10;99.90;;;;;;5048855;28;20523;-62
2023/04/13 10:27:27;;;;;;;3.85;1.20;;;7.10;99.90;;;;;;5084795;28;20104;-63
2023/04/13 10:29:53;;;;;;;5.28;1.25;;;7.20;99.90;;;;;;5066412;28;20048;-63
2023/04/13 10:32:24;;;;;;;5.13;1.27;;;7.20;99.90;;;;;;5065435;28;20119;-61
2023/04/13 10:34:50;;;;;;;3.05;1.02;;;7.40;99.90;;;;;;5048802;28;20119;-62
2023/04/13 10:37:27;;;;;;;5.15;1.00;;;7.60;99.90;;;;;;5084009;28;20043;-63
2023/04/13 10:40:07;;;;;;;7.95;1.30;;;7.90;99.90;;;;;;5080537;28;20040;-63
2023/04/13 10:42:41;;;;;;;4.10;0.95;;;7.80;99.90;;;;;;5064420;28;20110;-62
2023/04/13 10:45:20;;;;;;;1.77;0.60;;;7.70;99.90;;;;;;5064430;28;20052;-62
2023/04/13 10:47:46;;;;;;;2.35;1.00;;;7.40;99.90;;;;;;5065924;28;20044;-63
2023/04/13 10:50:21;;;;;;;5.28;1.00;;;7.30;99.90;;;;;;5078333;28;20047;-62
2023/04/13 10:53:04;;;;;;;4.93;0.93;;;7.20;99.90;;;;;;5067684;28;20512;-65
2023/04/13 10:55:31;;;;;;;4.25;0.80;;;7.30;99.90;;;;;;5065714;28;20060;-63
2023/04/13 10:57:58;;;;;;;2.67;0.85;;;7.40;99.90;;;;;;5047541;28;20499;-62
2023/04/13 11:00:26;;;;;;;4.25;1.23;;;7.50;99.90;;;;;;5064048;28;20040;-63
2023/04/13 11:02:56;;;;;;;7.85;1.30;;;8.00;99.90;;;;;;5064024;28;20086;-62
2023/04/13 11:05:23;;;;;;;6.10;1.35;;;8.30;99.90;;;;;;5046714;28;20078;-64
2023/04/13 11:07:50;;;;;;;4.97;1.20;;;8.70;99.90;;;;;;5047288;28;20040;-63
2023/04/13 11:10:26;;;;;;;7.38;1.60;;;9.20;99.90;;;;;;5064001;28;20048;-63
2023/04/13 11:12:56;;;;;;;9.02;1.77;;;9.50;99.90;;;;;;5047782;28;20511;-63
2023/04/13 11:15:31;;;;;;;11.00;1.95;;;9.90;99.90;;;;;;5084000;28;20138;-64
2023/04/13 11:17:59;;;;;;;10.68;2.95;;;10.30;99.90;;;;;;5083984;28;20395;-62
2023/04/13 11:20:36;;;;;;;10.00;2.25;;;10.80;99.90;;;;;;5057064;28;20388;-63
2023/04/13 11:23:05;;;;;;;12.05;2.13;;;11.20;99.90;;;;;;5069129;28;20445;-63
2023/04/13 11:25:32;;;;;;;13.93;2.72;;;11.30;99.90;;;;;;5050864;28;20066;-63
2023/04/13 11:27:59;;;;;;;15.35;2.30;;;11.30;99.90;;;;;;5089227;28;20055;-65
2023/04/13 11:30:26;;;;;;;14.93;2.83;;;10.90;99.90;;;;;;5090480;28;20146;-65
2023/04/13 11:32:53;;;;;;;16.05;2.88;;;10.50;99.90;;;;;;5060926;28;20040;-63
2023/04/13 11:35:20;;;;;;;16.05;3.05;;;9.90;99.90;;;;;;5069713;28;20044;-60
2023/04/13 11:37:51;;;;;;;16.08;3.08;;;9.50;99.90;;;;;;5069637;28;20040;-63
2023/04/13 11:40:21;;;;;;;12.32;2.90;;;9.30;99.90;;;;;;5053610;28;20046;-62
2023/04/13 11:42:50;;;;;;;19.88;4.20;;;9.20;99.90;;;;;;5053395;28;20294;-62
2023/04/13 11:45:16;;;;;;;19.90;4.13;;;9.00;99.90;;;;;;5053644;28;20399;-61
2023/04/13 11:47:44;;;;;;;16.00;3.53;;;9.00;99.90;;;;;;5072351;28;20089;-62
2023/04/13 11:50:10;;;;;;;16.90;3.55;;;9.00;99.90;;;;;;5063719;28;20045;-62
2023/04/13 11:52:38;;;;;;;21.08;3.22;;;9.20;99.90;;;;;;5053585;28;20040;-62
2023/04/13 11:55:05;;;;;;;16.55;3.47;;;9.50;99.90;;;;;;5053246;28;20076;-63
2023/04/13 11:57:32;;;;;;;14.77;2.78;;;9.80;99.90;;;;;;5053665;28;20548;-65
2023/04/13 11:59:58;;;;;;;15.25;2.65;;;9.90;99.90;;;;;;5070131;28;20407;-63
2023/04/13 12:02:29;;;;;;;15.68;2.65;;;9.90;99.90;;;;;;5069713;28;20056;-65
2023/04/13 12:04:55;;;;;;;14.38;2.83;;;9.80;99.90;;;;;;5069925;28;20123;-65
2023/04/13 12:07:21;;;;;;;12.02;2.28;;;9.80;99.90;;;;;;5053118;28;20086;-62
2023/04/13 12:09:50;;;;;;;15.52;2.85;;;9.90;99.90;;;;;;5053089;28;20051;-62
2023/04/13 12:12:23;;;;;;;14.52;2.22;;;10.00;99.90;;;;;;5053703;28;20510;-64
2023/04/13 12:14:53;;;;;;;12.40;2.90;;;10.00;99.90;;;;;;5070083;28;20224;-65
2023/04/13 12:17:19;;;;;;;12.93;2.05;;;10.00;99.90;;;;;;5078205;28;20283;-68
2023/04/13 12:19:49;;;;;;;14.93;2.58;;;10.30;99.90;;;;;;5056737;28;20235;-64
2023/04/13 12:22:14;;;;;;;13.40;2.40;;;10.60;99.90;;;;;;5069599;28;20060;-67
2023/04/13 12:24:40;;;;;;;12.15;2.28;;;10.80;99.90;;;;;;5069801;28;20048;-66
2023/04/13 12:27:06;;;;;;;13.82;2.90;;;10.80;99.90;;;;;;5070038;28;20544;-63
2023/04/13 12:29:39;;;;;;;11.63;2.10;;;10.80;99.90;;;;;;5070195;28;20072;-67
2023/04/13 12:32:14;;;;;;;11.77;2.40;;;10.70;99.90;;;;;;5057919;28;20039;-69
2023/04/13 12:34:40;;;;;;;13.82;2.22;;;10.60;99.90;;;;;;5068762;28;20431;-63
2023/04/13 12:37:06;;;;;;;15.43;2.08;;;10.40;99.90;;;;;;5052757;28;20036;-66
2023/04/13 12:39:32;;;;;;;12.35;2.25;;;10.40;99.90;;;;;;5050216;28;20583;-69
2023/04/13 12:41:58;;;;;;;9.98;2.08;;;10.20;99.90;;;;;;5050147;28;20310;-67
2023/04/13 12:44:23;;;;;;;13.93;2.13;;;10.10;99.90;;;;;;5068530;28;20530;-65
2023/04/13 12:46:50;;;;;;;17.00;2.55;;;10.00;99.90;;;;;;5077258;28;20045;-64
2023/04/13 12:49:15;;;;;;;10.88;2.25;;;10.00;99.90;;;;;;5063789;28;20255;-64
2023/04/13 12:51:41;;;;;;;13.05;3.20;;;10.20;99.90;;;;;;5071989;28;20028;-63
2023/04/13 12:54:12;;;;;;;13.90;2.25;;;10.20;99.90;;;;;;5082952;28;20047;-65